Time;durP1;ratioP1;P1;durP2;ratioP2;P2;SDS_P1;SDS_P2;PMS_P1;PMS_P2;Temp;Humidity;BMP_temperature;BMP_pressure;BME280_temperature;BME280_humidity;BME280_pressure;Samples;Min_cycle;Max_cycle;Signal;HPM_P1;HPM_P2
2023/06/28 00:01:14;;;;;;;12.18;2.30;;;17.50;99.90;;;;;;4938682;28;20697;-46
2023/06/28 00:03:40;;;;;;;8.98;2.38;;;17.50;99.90;;;;;;4964833;28;20260;-49
2023/06/28 00:06:06;;;;;;;8.00;1.90;;;17.50;99.90;;;;;;4975029;28;20097;-49
2023/06/28 00:08:32;;;;;;;7.95;2.20;;;17.50;99.90;;;;;;4966626;28;20047;-50
2023/06/28 00:10:58;;;;;;;7.63;2.30;;;17.40;99.90;;;;;;4955228;28;20042;-50
2023/06/28 00:13:24;;;;;;;8.90;2.58;;;17.40;99.90;;;;;;4955660;28;20063;-50
2023/06/28 00:15:50;;;;;;;7.15;2.20;;;17.40;99.90;;;;;;4955656;28;20039;-47
2023/06/28 00:18:15;;;;;;;5.10;2.17;;;17.30;99.90;;;;;;4955224;28;20482;-47
2023/06/28 00:20:41;;;;;;;6.93;2.40;;;17.20;99.90;;;;;;4955476;28;20103;-48
2023/06/28 00:23:08;;;;;;;9.38;2.97;;;17.10;99.90;;;;;;4955654;28;20372;-50
2023/06/28 00:25:33;;;;;;;6.35;2.47;;;17.10;99.90;;;;;;4961833;28;20058;-48
2023/06/28 00:27:59;;;;;;;5.78;2.55;;;17.00;99.90;;;;;;4974746;28;20046;-49
2023/06/28 00:30:25;;;;;;;8.40;2.45;;;17.00;99.90;;;;;;4974170;28;20085;-51
2023/06/28 00:32:52;;;;;;;5.68;2.35;;;16.90;99.90;;;;;;4958662;28;20039;-47
2023/06/28 00:35:17;;;;;;;7.07;2.30;;;16.80;99.90;;;;;;4972834;28;20070;-48
2023/06/28 00:37:43;;;;;;;6.93;2.83;;;16.80;99.90;;;;;;4974498;28;20038;-47
2023/06/28 00:40:09;;;;;;;6.90;2.45;;;16.70;99.90;;;;;;4974421;28;20524;-47
2023/06/28 00:42:34;;;;;;;7.40;2.70;;;16.70;99.90;;;;;;4970231;28;20406;-46
2023/06/28 00:45:00;;;;;;;8.90;2.75;;;16.70;99.90;;;;;;4974469;28;20039;-49
2023/06/28 00:47:28;;;;;;;6.88;2.75;;;16.70;99.90;;;;;;4974230;28;20035;-49
2023/06/28 00:49:55;;;;;;;7.60;3.10;;;16.60;99.90;;;;;;4961893;28;20047;-49
2023/06/28 00:52:21;;;;;;;8.00;2.67;;;16.60;99.90;;;;;;4965690;28;20042;-50
2023/06/28 00:54:47;;;;;;;7.85;2.60;;;16.60;99.90;;;;;;4955054;28;20039;-48
2023/06/28 00:57:14;;;;;;;7.00;2.70;;;16.60;99.90;;;;;;4967352;28;20042;-51
2023/06/28 00:59:40;;;;;;;9.00;2.95;;;16.60;99.90;;;;;;4973898;28;20239;-48
2023/06/28 01:02:06;;;;;;;6.75;2.72;;;16.60;99.90;;;;;;4969794;28;20042;-49
2023/06/28 01:04:33;;;;;;;5.30;2.60;;;16.60;99.90;;;;;;4973627;28;20049;-49
2023/06/28 01:07:00;;;;;;;6.88;2.90;;;16.60;99.90;;;;;;4973642;28;20043;-51
2023/06/28 01:09:28;;;;;;;6.65;2.65;;;16.60;99.90;;;;;;4937649;28;20043;-48
2023/06/28 01:11:55;;;;;;;8.75;2.60;;;16.50;99.90;;;;;;4954672;28;20047;-47
2023/06/28 01:14:23;;;;;;;7.63;2.53;;;16.50;99.90;;;;;;4954225;28;20050;-47
2023/06/28 01:16:54;;;;;;;6.30;2.80;;;16.50;99.90;;;;;;4954620;28;20043;-46
2023/06/28 01:19:24;;;;;;;7.20;2.70;;;16.50;99.90;;;;;;4954218;28;20038;-49
2023/06/28 01:21:55;;;;;;;7.80;2.90;;;16.50;99.90;;;;;;4954950;28;20050;-49
2023/06/28 01:24:21;;;;;;;7.13;2.92;;;16.50;99.90;;;;;;4973416;28;20133;-48
2023/06/28 01:26:52;;;;;;;6.63;3.10;;;16.40;99.90;;;;;;4973490;28;20038;-48
2023/06/28 01:29:21;;;;;;;8.55;3.17;;;16.40;99.90;;;;;;4937171;28;20122;-47
2023/06/28 01:31:52;;;;;;;6.70;3.40;;;16.40;99.90;;;;;;4954078;28;20047;-46
2023/06/28 01:34:18;;;;;;;7.47;3.35;;;16.30;99.90;;;;;;4954068;28;20281;-48
2023/06/28 01:36:46;;;;;;;7.80;3.17;;;16.30;99.90;;;;;;4953964;28;20055;-48
2023/06/28 01:39:14;;;;;;;8.68;3.47;;;16.30;99.90;;;;;;4936671;28;20047;-49
2023/06/28 01:41:41;;;;;;;8.02;3.47;;;16.30;99.90;;;;;;4954109;28;20034;-50
2023/06/28 01:44:07;;;;;;;7.35;3.10;;;16.30;99.90;;;;;;4953996;28;20047;-46
2023/06/28 01:46:34;;;;;;;7.97;3.80;;;16.30;99.90;;;;;;4953901;28;20031;-49
2023/06/28 01:49:00;;;;;;;7.50;3.60;;;16.30;99.90;;;;;;4953239;28;20462;-51
2023/06/28 01:51:26;;;;;;;8.05;3.90;;;16.20;99.90;;;;;;4953845;28;20085;-47
2023/06/28 01:53:52;;;;;;;10.18;4.18;;;16.30;99.90;;;;;;4953677;28;20074;-49
2023/06/28 01:56:17;;;;;;;7.70;4.25;;;16.30;99.90;;;;;;4953553;28;20035;-49
2023/06/28 01:58:43;;;;;;;8.88;4.35;;;16.30;99.90;;;;;;4953227;28;20039;-51
2023/06/28 02:01:09;;;;;;;9.38;3.92;;;16.30;99.90;;;;;;4953648;28;20479;-49
2023/06/28 02:03:35;;;;;;;8.63;4.20;;;16.30;99.90;;;;;;4953759;28;20039;-50
2023/06/28 02:06:00;;;;;;;10.55;4.53;;;16.30;99.90;;;;;;4963595;28;20098;-48
2023/06/28 02:08:26;;;;;;;8.35;4.50;;;16.40;99.90;;;;;;4972644;28;20442;-49
2023/06/28 02:10:52;;;;;;;7.63;4.43;;;16.30;99.90;;;;;;4972743;28;20390;-49
2023/06/28 02:13:17;;;;;;;9.60;4.03;;;16.30;99.90;;;;;;4972886;28;20042;-50
2023/06/28 02:15:43;;;;;;;8.88;4.63;;;16.30;99.90;;;;;;4972349;28;20050;-46
2023/06/28 02:18:09;;;;;;;9.93;4.45;;;16.30;99.90;;;;;;4971549;28;20105;-50
2023/06/28 02:20:34;;;;;;;10.63;4.50;;;16.30;99.90;;;;;;4972486;28;20117;-51
2023/06/28 02:23:00;;;;;;;9.55;4.57;;;16.30;99.90;;;;;;4972262;28;20039;-48
2023/06/28 02:25:26;;;;;;;9.15;4.30;;;16.30;99.90;;;;;;4972457;28;20046;-50
2023/06/28 02:27:51;;;;;;;9.15;4.10;;;16.30;99.90;;;;;;4936606;28;20043;-50
2023/06/28 02:30:18;;;;;;;8.48;4.18;;;16.30;99.90;;;;;;4952957;28;20043;-52
2023/06/28 02:32:44;;;;;;;7.72;3.97;;;16.30;99.90;;;;;;4952944;28;20043;-47
2023/06/28 02:35:09;;;;;;;8.75;4.60;;;16.30;99.90;;;;;;4964316;28;20031;-47
2023/06/28 02:37:35;;;;;;;9.80;4.68;;;16.40;99.90;;;;;;4959726;28;20057;-48
2023/06/28 02:40:02;;;;;;;7.40;4.50;;;16.30;99.90;;;;;;4972243;28;20133;-49
2023/06/28 02:42:28;;;;;;;9.10;5.00;;;16.30;99.90;;;;;;4972180;28;20382;-46
2023/06/28 02:44:54;;;;;;;10.00;4.95;;;16.30;99.90;;;;;;4936365;28;20047;-48
2023/06/28 02:47:19;;;;;;;7.25;4.78;;;16.30;99.90;;;;;;4952711;28;20054;-50
2023/06/28 02:49:45;;;;;;;10.38;5.32;;;16.30;99.90;;;;;;4965188;28;20050;-49
2023/06/28 02:52:11;;;;;;;9.05;4.93;;;16.30;99.90;;;;;;4935480;28;20099;-49
2023/06/28 02:54:37;;;;;;;8.35;4.65;;;16.30;99.90;;;;;;4952759;28;20051;-48
2023/06/28 02:57:05;;;;;;;10.73;5.85;;;16.30;99.90;;;;;;4952788;28;20118;-51
2023/06/28 02:59:31;;;;;;;9.18;5.53;;;16.20;99.90;;;;;;4961200;28;20715;-51
2023/06/28 03:01:57;;;;;;;10.00;5.43;;;16.30;99.90;;;;;;4971995;28;20085;-49
2023/06/28 03:04:22;;;;;;;9.15;5.00;;;16.20;99.90;;;;;;4972149;28;20097;-48
2023/06/28 03:06:49;;;;;;;8.88;4.88;;;16.20;99.90;;;;;;4935249;28;20550;-48
2023/06/28 03:09:15;;;;;;;11.45;4.82;;;16.20;99.90;;;;;;4935268;28;20090;-46
2023/06/28 03:11:40;;;;;;;9.75;4.88;;;16.20;99.90;;;;;;4952186;28;20035;-51
2023/06/28 03:14:06;;;;;;;7.60;5.00;;;16.20;99.90;;;;;;4967073;28;20031;-49
2023/06/28 03:16:31;;;;;;;10.93;5.28;;;16.20;99.90;;;;;;4971580;28;20045;-49
2023/06/28 03:18:57;;;;;;;8.60;4.63;;;16.10;99.90;;;;;;4952198;28;20050;-49
2023/06/28 03:21:23;;;;;;;9.52;5.47;;;16.10;99.90;;;;;;4938263;28;20046;-51
2023/06/28 03:23:48;;;;;;;11.43;5.53;;;16.10;99.90;;;;;;4971734;28;20066;-52
2023/06/28 03:26:14;;;;;;;11.20;5.72;;;16.10;99.90;;;;;;4971680;28;20050;-48
2023/06/28 03:28:40;;;;;;;11.93;5.40;;;16.10;99.90;;;;;;4974066;28;20446;-48
2023/06/28 03:31:05;;;;;;;9.25;4.50;;;16.10;99.90;;;;;;4975808;28;20031;-46
2023/06/28 03:33:31;;;;;;;8.25;4.53;;;16.10;99.90;;;;;;4975706;28;20493;-48
2023/06/28 03:35:56;;;;;;;7.90;4.72;;;16.00;99.90;;;;;;4965099;28;20523;-49
2023/06/28 03:38:22;;;;;;;9.93;4.63;;;16.00;99.90;;;;;;4956006;28;20491;-48
2023/06/28 03:40:48;;;;;;;9.48;4.75;;;16.00;99.90;;;;;;4956126;28;20117;-51
2023/06/28 03:43:13;;;;;;;8.60;4.90;;;15.90;99.90;;;;;;4956195;28;20039;-51
2023/06/28 03:45:39;;;;;;;7.15;4.45;;;15.90;99.90;;;;;;4956340;28;20046;-49
2023/06/28 03:48:05;;;;;;;8.70;4.15;;;15.90;99.90;;;;;;4955851;28;20054;-51
2023/06/28 03:50:30;;;;;;;8.43;4.18;;;15.90;99.90;;;;;;4938140;28;20555;-49
2023/06/28 03:52:56;;;;;;;7.30;4.20;;;15.90;99.90;;;;;;4956111;28;20031;-47
2023/06/28 03:55:22;;;;;;;8.75;3.95;;;15.90;99.90;;;;;;4938406;28;20042;-47
2023/06/28 03:57:47;;;;;;;9.15;3.70;;;15.90;99.90;;;;;;4955745;28;20167;-49
2023/06/28 04:00:15;;;;;;;7.57;3.88;;;15.90;99.90;;;;;;4957326;28;20043;-50
2023/06/28 04:02:40;;;;;;;6.18;4.18;;;15.80;99.90;;;;;;4974845;28;20047;-47
2023/06/28 04:05:06;;;;;;;8.70;3.92;;;15.80;99.90;;;;;;4922802;28;20038;-53
2023/06/28 04:07:32;;;;;;;7.65;3.58;;;15.80;99.90;;;;;;4955896;28;20035;-49
2023/06/28 04:09:58;;;;;;;5.78;3.38;;;15.80;99.90;;;;;;4955926;28;20058;-49
2023/06/28 04:12:24;;;;;;;6.72;3.15;;;15.80;99.90;;;;;;4955381;28;20047;-49
2023/06/28 04:14:50;;;;;;;4.82;2.65;;;15.80;99.90;;;;;;4955197;28;20043;-50
2023/06/28 04:17:16;;;;;;;7.30;3.17;;;15.70;99.90;;;;;;4955170;28;20039;-51
2023/06/28 04:19:43;;;;;;;6.32;2.78;;;15.70;99.90;;;;;;4955243;28;20043;-49
2023/06/28 04:22:08;;;;;;;7.88;2.90;;;15.70;99.90;;;;;;4955620;28;20457;-51
2023/06/28 04:24:34;;;;;;;7.65;2.85;;;15.70;99.90;;;;;;4956006;28;20621;-49
2023/06/28 04:27:00;;;;;;;7.28;3.15;;;15.80;99.90;;;;;;4966870;28;20066;-50
2023/06/28 04:29:29;;;;;;;7.60;3.28;;;15.80;99.90;;;;;;4938685;28;20212;-47
2023/06/28 04:32:00;;;;;;;6.45;3.50;;;15.80;99.90;;;;;;4955108;28;20035;-48
2023/06/28 04:34:25;;;;;;;7.55;3.53;;;15.80;99.90;;;;;;4969843;28;20042;-48
2023/06/28 04:36:52;;;;;;;7.40;3.55;;;15.80;99.90;;;;;;4974434;28;20078;-53
2023/06/28 04:39:18;;;;;;;6.93;3.45;;;15.80;99.90;;;;;;4973408;28;20094;-47
2023/06/28 04:41:45;;;;;;;6.57;3.58;;;15.80;99.90;;;;;;4974180;28;20047;-48
2023/06/28 04:44:10;;;;;;;7.65;3.50;;;15.80;99.90;;;;;;4938946;28;20031;-50
2023/06/28 04:46:36;;;;;;;7.03;3.22;;;15.80;99.90;;;;;;4973995;28;20049;-50
2023/06/28 04:49:02;;;;;;;7.25;3.70;;;15.90;99.90;;;;;;4973660;28;20102;-46
2023/06/28 04:51:29;;;;;;;7.03;3.70;;;15.90;99.90;;;;;;4938027;28;20061;-51
2023/06/28 04:53:55;;;;;;;6.57;3.25;;;15.90;99.90;;;;;;4954826;28;20047;-49
2023/06/28 04:56:20;;;;;;;7.63;3.90;;;15.90;99.90;;;;;;4954726;28;20046;-49
2023/06/28 04:58:46;;;;;;;8.55;3.67;;;15.90;99.90;;;;;;4954841;28;20095;-51
2023/06/28 05:01:12;;;;;;;7.55;4.50;;;15.90;99.90;;;;;;4972289;28;20473;-49
2023/06/28 05:03:40;;;;;;;12.02;4.63;;;15.80;99.90;;;;;;4937816;28;20395;-47
2023/06/28 05:06:08;;;;;;;12.10;5.68;;;15.80;99.90;;;;;;4954793;28;20047;-52
2023/06/28 05:08:35;;;;;;;13.32;5.63;;;15.80;99.90;;;;;;4954578;28;20082;-47
2023/06/28 05:11:01;;;;;;;11.70;5.40;;;15.70;99.90;;;;;;4954402;28;20035;-48
2023/06/28 05:13:27;;;;;;;9.75;4.82;;;15.80;99.90;;;;;;4954328;28;20035;-46
2023/06/28 05:15:53;;;;;;;12.55;5.80;;;15.70;99.90;;;;;;4937648;28;20046;-47
2023/06/28 05:18:20;;;;;;;11.90;6.18;;;15.70;99.90;;;;;;4954552;28;20035;-48
2023/06/28 05:20:46;;;;;;;10.48;5.63;;;15.70;99.90;;;;;;4954476;28;20039;-50
2023/06/28 05:23:15;;;;;;;12.45;6.13;;;15.70;99.90;;;;;;4954549;28;20039;-49
2023/06/28 05:25:41;;;;;;;13.15;6.20;;;15.60;99.90;;;;;;4963335;28;20050;-47
2023/06/28 05:28:09;;;;;;;10.32;5.90;;;15.60;99.90;;;;;;4973219;28;20057;-48
2023/06/28 05:30:35;;;;;;;11.98;6.53;;;15.50;99.90;;;;;;4973305;28;20046;-46
2023/06/28 05:33:02;;;;;;;12.30;6.40;;;15.50;99.90;;;;;;4973359;28;20491;-48
2023/06/28 05:35:29;;;;;;;11.05;6.45;;;15.50;99.90;;;;;;4973685;28;20497;-47
2023/06/28 05:37:55;;;;;;;12.23;6.70;;;15.50;99.90;;;;;;4973127;28;20039;-48
2023/06/28 05:40:21;;;;;;;18.23;7.68;;;15.40;99.90;;;;;;4973292;28;20125;-51
2023/06/28 05:42:46;;;;;;;11.98;6.40;;;15.40;99.90;;;;;;4972618;28;20035;-52
2023/06/28 05:45:12;;;;;;;11.98;7.35;;;15.30;99.90;;;;;;4954039;28;20094;-50
2023/06/28 05:47:38;;;;;;;15.10;8.00;;;15.30;99.90;;;;;;4936680;28;20099;-52
2023/06/28 05:50:04;;;;;;;13.90;7.32;;;15.40;99.90;;;;;;4968658;28;20438;-48
2023/06/28 05:52:29;;;;;;;15.98;9.00;;;15.40;99.90;;;;;;4972947;28;20080;-50
2023/06/28 05:54:55;;;;;;;13.25;8.13;;;15.40;99.90;;;;;;4937982;28;20523;-48
2023/06/28 05:57:21;;;;;;;12.60;8.55;;;15.40;99.90;;;;;;4957801;28;20446;-49
2023/06/28 05:59:46;;;;;;;13.55;8.77;;;15.40;99.90;;;;;;4973009;28;20402;-49
2023/06/28 06:02:12;;;;;;;13.35;8.68;;;15.40;99.90;;;;;;4967702;28;20043;-48
2023/06/28 06:04:38;;;;;;;14.85;9.05;;;15.40;99.90;;;;;;4953692;28;20562;-51
2023/06/28 06:07:04;;;;;;;12.98;7.57;;;15.40;99.90;;;;;;4953235;28;20053;-47
2023/06/28 06:09:30;;;;;;;15.93;8.70;;;15.40;99.90;;;;;;4952598;28;20118;-51
2023/06/28 06:11:56;;;;;;;14.48;8.65;;;15.50;99.90;;;;;;4952847;28;20046;-51
2023/06/28 06:14:22;;;;;;;13.80;9.02;;;15.50;99.90;;;;;;4936164;28;20529;-48
2023/06/28 06:16:47;;;;;;;10.35;7.38;;;15.50;99.90;;;;;;4953802;28;20071;-45
2023/06/28 06:19:13;;;;;;;15.32;8.73;;;15.50;99.90;;;;;;4953108;28;20035;-50
2023/06/28 06:21:39;;;;;;;12.48;7.30;;;15.50;99.90;;;;;;4953456;28;20039;-46
2023/06/28 06:24:07;;;;;;;14.48;8.02;;;15.60;99.90;;;;;;4953606;28;20410;-46
2023/06/28 06:26:35;;;;;;;12.65;7.63;;;15.60;99.90;;;;;;4952969;28;20043;-48
2023/06/28 06:29:01;;;;;;;10.77;6.95;;;15.50;99.90;;;;;;4953344;28;20067;-52
2023/06/28 06:31:28;;;;;;;13.70;7.53;;;15.60;99.90;;;;;;4953005;28;20493;-48
2023/06/28 06:33:56;;;;;;;12.23;7.05;;;15.70;99.90;;;;;;4953346;28;20046;-51
2023/06/28 06:36:22;;;;;;;13.18;7.45;;;15.60;99.90;;;;;;4952825;28;20051;-49
2023/06/28 06:38:48;;;;;;;14.55;7.60;;;15.70;99.90;;;;;;4968565;28;20042;-47
2023/06/28 06:41:14;;;;;;;17.00;7.93;;;15.70;99.90;;;;;;4972015;28;20513;-50
2023/06/28 06:43:39;;;;;;;10.38;6.63;;;15.70;99.90;;;;;;4972356;28;20050;-48
2023/06/28 06:46:05;;;;;;;13.15;6.95;;;15.60;99.90;;;;;;4964602;28;21719;-49
2023/06/28 06:48:31;;;;;;;14.40;6.95;;;15.60;99.90;;;;;;4935202;28;20436;-52
2023/06/28 06:50:57;;;;;;;10.93;6.28;;;15.70;99.90;;;;;;4952640;28;20055;-47
2023/06/28 06:53:23;;;;;;;15.20;7.10;;;15.70;99.90;;;;;;4919899;28;20553;-49
2023/06/28 06:55:48;;;;;;;12.30;7.05;;;15.70;99.90;;;;;;4953180;28;20188;-46
2023/06/28 06:58:14;;;;;;;12.75;7.40;;;15.70;99.90;;;;;;4952853;28;20047;-50
2023/06/28 07:00:40;;;;;;;14.38;7.82;;;15.80;99.90;;;;;;4953681;28;20475;-52
2023/06/28 07:03:05;;;;;;;13.43;7.10;;;15.70;99.90;;;;;;4971580;28;20042;-50
2023/06/28 07:05:31;;;;;;;14.40;7.45;;;15.80;99.90;;;;;;4956802;28;20054;-47
2023/06/28 07:07:56;;;;;;;15.57;7.40;;;15.80;99.90;;;;;;4952817;28;20039;-50
2023/06/28 07:10:22;;;;;;;14.85;7.85;;;15.90;99.90;;;;;;4935388;28;20070;-47
2023/06/28 07:12:48;;;;;;;14.52;7.15;;;15.90;99.90;;;;;;4952891;28;20039;-48
2023/06/28 07:15:13;;;;;;;12.52;7.72;;;15.90;99.90;;;;;;4952411;28;20094;-51
2023/06/28 07:17:39;;;;;;;12.80;7.40;;;15.80;99.90;;;;;;4952663;28;20043;-46
2023/06/28 07:20:06;;;;;;;11.82;7.65;;;15.80;99.90;;;;;;4952403;28;20474;-50
2023/06/28 07:22:31;;;;;;;11.82;7.07;;;15.80;99.90;;;;;;4952535;28;20043;-48
2023/06/28 07:25:02;;;;;;;14.50;8.02;;;15.90;99.90;;;;;;4935276;28;20027;-48
2023/06/28 07:27:28;;;;;;;16.38;7.70;;;15.90;99.90;;;;;;4952322;28;20050;-51
2023/06/28 07:29:55;;;;;;;12.88;8.32;;;15.90;99.90;;;;;;4952836;28;20043;-50
2023/06/28 07:32:20;;;;;;;11.70;7.65;;;16.00;99.90;;;;;;4952551;28;20043;-49
2023/06/28 07:34:46;;;;;;;13.35;7.43;;;15.90;99.90;;;;;;4935270;28;20399;-52
2023/06/28 07:37:12;;;;;;;12.25;7.78;;;15.90;99.90;;;;;;4952293;28;20398;-48
2023/06/28 07:39:37;;;;;;;13.98;8.40;;;15.90;99.90;;;;;;4935399;28;20142;-47
2023/06/28 07:42:03;;;;;;;13.82;7.95;;;15.90;99.90;;;;;;4952760;28;20539;-50
2023/06/28 07:44:29;;;;;;;13.02;8.48;;;15.90;99.90;;;;;;4952735;28;20039;-46
2023/06/28 07:46:55;;;;;;;12.85;8.80;;;16.00;99.90;;;;;;4968510;28;20125;-51
2023/06/28 07:49:20;;;;;;;13.85;8.07;;;15.90;99.90;;;;;;4971213;28;20166;-49
2023/06/28 07:51:47;;;;;;;12.80;8.90;;;16.00;99.90;;;;;;4935547;28;20051;-47
2023/06/28 07:54:12;;;;;;;15.52;8.35;;;16.00;99.90;;;;;;4952087;28;20383;-48
2023/06/28 07:56:38;;;;;;;19.20;8.80;;;15.90;99.90;;;;;;4970853;28;20039;-48
2023/06/28 07:59:05;;;;;;;16.73;9.20;;;16.00;99.90;;;;;;4953425;28;20051;-51
2023/06/28 08:01:33;;;;;;;13.00;9.05;;;16.00;99.90;;;;;;4968395;28;20039;-48
2023/06/28 08:03:59;;;;;;;14.07;8.52;;;16.00;99.90;;;;;;4936218;28;20047;-47
2023/06/28 08:06:25;;;;;;;15.93;6.47;;;16.10;99.90;;;;;;4952219;28;20130;-49
2023/06/28 08:08:51;;;;;;;15.88;9.23;;;16.10;99.90;;;;;;4952317;28;20546;-47
2023/06/28 08:11:16;;;;;;;13.85;10.15;;;16.20;99.90;;;;;;4951995;28;20053;-48
2023/06/28 08:13:42;;;;;;;15.30;10.05;;;16.10;99.90;;;;;;4952060;28;20126;-49
2023/06/28 08:16:10;;;;;;;17.73;9.57;;;16.20;99.90;;;;;;4954500;28;20035;-51
2023/06/28 08:18:36;;;;;;;18.02;10.00;;;16.30;99.90;;;;;;4955268;28;20048;-46
2023/06/28 08:21:02;;;;;;;22.15;10.38;;;16.20;99.90;;;;;;4955752;28;20494;-49
2023/06/28 08:23:27;;;;;;;18.15;10.60;;;16.20;99.90;;;;;;4955886;28;20090;-51
2023/06/28 08:25:53;;;;;;;17.08;10.77;;;16.20;99.90;;;;;;4973949;28;20039;-49
2023/06/28 08:28:19;;;;;;;18.17;10.18;;;16.30;99.90;;;;;;4974578;28;20475;-47
2023/06/28 08:30:44;;;;;;;19.08;8.43;;;16.20;99.90;;;;;;4974784;28;20470;-49
2023/06/28 08:33:11;;;;;;;19.83;8.18;;;16.30;99.90;;;;;;4974515;28;20382;-50
2023/06/28 08:35:37;;;;;;;16.02;10.68;;;16.20;99.90;;;;;;4960117;28;20032;-51
2023/06/28 08:38:03;;;;;;;17.48;10.77;;;16.30;99.90;;;;;;4957964;28;20049;-49
2023/06/28 08:40:30;;;;;;;17.88;11.73;;;16.30;99.90;;;;;;4938574;28;20067;-49
2023/06/28 08:43:01;;;;;;;16.52;11.60;;;16.40;99.90;;;;;;4964631;28;20045;-49
2023/06/28 08:45:27;;;;;;;16.17;11.52;;;16.40;99.90;;;;;;4974167;28;20450;-51
2023/06/28 08:47:54;;;;;;;16.02;11.38;;;16.30;99.90;;;;;;4965266;28;20042;-50
2023/06/28 08:50:21;;;;;;;19.10;11.90;;;16.30;99.90;;;;;;4973526;28;20054;-51
2023/06/28 08:52:47;;;;;;;20.48;12.77;;;16.40;99.90;;;;;;4974649;28;20130;-45
2023/06/28 08:55:13;;;;;;;16.90;11.80;;;16.40;99.90;;;;;;4965221;28;20035;-48
2023/06/28 08:57:40;;;;;;;19.23;11.90;;;16.40;99.90;;;;;;4957295;28;20039;-51
2023/06/28 09:00:10;;;;;;;20.00;12.45;;;16.30;99.90;;;;;;4973699;28;20050;-47
2023/06/28 09:02:36;;;;;;;16.13;12.40;;;16.30;99.90;;;;;;4956108;28;20565;-47
2023/06/28 09:05:03;;;;;;;20.85;13.02;;;16.40;99.90;;;;;;4954953;28;20106;-48
2023/06/28 09:07:31;;;;;;;20.63;12.80;;;16.40;99.90;;;;;;4937208;28;20047;-47
2023/06/28 09:09:57;;;;;;;20.30;11.95;;;16.40;99.90;;;;;;4954678;28;20146;-48
2023/06/28 09:12:23;;;;;;;20.02;13.25;;;16.40;99.90;;;;;;4957544;28;20071;-49
2023/06/28 09:14:50;;;;;;;20.08;12.65;;;16.40;99.90;;;;;;4961685;28;20375;-51
2023/06/28 09:17:15;;;;;;;19.02;13.40;;;16.40;99.90;;;;;;4973870;28;20035;-49
2023/06/28 09:19:41;;;;;;;21.75;12.70;;;16.50;99.90;;;;;;4973372;28;20360;-50
2023/06/28 09:22:10;;;;;;;18.75;14.07;;;16.50;99.90;;;;;;4974049;28;20045;-48
2023/06/28 09:24:36;;;;;;;22.17;15.40;;;16.40;99.90;;;;;;4973412;28;20035;-49
2023/06/28 09:27:07;;;;;;;24.88;12.40;;;16.60;99.90;;;;;;4921330;28;20036;-47
2023/06/28 09:29:33;;;;;;;20.48;14.85;;;16.70;99.90;;;;;;4954355;28;20079;-49
2023/06/28 09:32:02;;;;;;;17.83;14.02;;;16.90;99.90;;;;;;4953925;28;20040;-48
2023/06/28 09:34:28;;;;;;;20.33;15.50;;;16.70;99.90;;;;;;4936985;28;20103;-46
2023/06/28 09:36:55;;;;;;;21.33;16.77;;;16.80;99.90;;;;;;4954203;28;20043;-49
2023/06/28 09:39:27;;;;;;;20.30;14.98;;;16.90;99.90;;;;;;4954154;28;20038;-51
2023/06/28 09:41:54;;;;;;;22.40;16.38;;;16.80;99.90;;;;;;4954117;28;20047;-51
2023/06/28 09:44:28;;;;;;;18.50;15.07;;;16.80;99.90;;;;;;4953848;28;20110;-49
2023/06/28 09:47:00;;;;;;;18.25;14.90;;;16.90;99.90;;;;;;4954042;28;20039;-50
2023/06/28 09:49:26;;;;;;;20.35;14.88;;;16.90;99.90;;;;;;4960171;28;20093;-47
2023/06/28 09:51:57;;;;;;;18.70;12.45;;;16.80;99.90;;;;;;4937336;28;20456;-50
2023/06/28 09:54:34;;;;;;;18.83;16.38;;;17.00;99.90;;;;;;4956885;28;20570;-49
2023/06/28 09:57:01;;;;;;;18.17;15.98;;;16.90;99.90;;;;;;4953544;28;20046;-48
2023/06/28 09:59:31;;;;;;;20.63;16.23;;;16.90;99.90;;;;;;4956095;28;20139;-50
2023/06/28 10:01:58;;;;;;;20.25;12.40;;;16.90;99.90;;;;;;4972856;28;20413;-51
2023/06/28 10:04:27;;;;;;;19.65;16.27;;;17.00;99.90;;;;;;4959099;28;20058;-50
2023/06/28 10:06:59;;;;;;;19.70;17.27;;;17.00;99.90;;;;;;4961259;28;20122;-49
2023/06/28 10:09:28;;;;;;;20.88;17.45;;;16.90;99.90;;;;;;4952910;28;20043;-49
2023/06/28 10:11:56;;;;;;;19.60;17.15;;;16.90;99.90;;;;;;4953176;28;20039;-46
2023/06/28 10:14:23;;;;;;;21.38;19.13;;;17.20;99.90;;;;;;4953263;28;20470;-47
2023/06/28 10:16:53;;;;;;;20.65;18.55;;;17.10;99.90;;;;;;4953126;28;20047;-50
2023/06/28 10:19:19;;;;;;;22.55;19.25;;;17.20;99.90;;;;;;4952315;28;20043;-50
2023/06/28 10:21:45;;;;;;;21.00;18.75;;;17.30;99.90;;;;;;4951781;28;20047;-48
2023/06/28 10:24:10;;;;;;;21.70;19.13;;;17.30;99.90;;;;;;4952721;28;20051;-48
2023/06/28 10:26:36;;;;;;;22.58;20.13;;;17.40;99.90;;;;;;4935265;28;20443;-52
2023/06/28 10:29:03;;;;;;;22.05;19.52;;;17.40;99.90;;;;;;4962172;28;20045;-50
2023/06/28 10:31:29;;;;;;;23.10;20.38;;;17.20;99.90;;;;;;4972142;28;20035;-50
2023/06/28 10:33:57;;;;;;;22.70;16.40;;;17.20;99.90;;;;;;4937069;28;20050;-48
2023/06/28 10:36:26;;;;;;;21.80;19.52;;;17.20;99.90;;;;;;4953008;28;20080;-52
2023/06/28 10:38:52;;;;;;;26.75;21.67;;;17.20;99.90;;;;;;4952495;28;20046;-51
2023/06/28 10:41:19;;;;;;;24.20;21.70;;;17.20;99.90;;;;;;4919866;28;20053;-48
2023/06/28 10:43:45;;;;;;;24.55;21.98;;;17.30;99.90;;;;;;4952897;28;20171;-48
2023/06/28 10:46:29;;;;;;;26.55;22.92;;;17.30;99.90;;;;;;4953183;28;20114;-50
2023/06/28 10:48:56;;;;;;;;;;;17.40;99.90;;;;;;4952738;28;20059;-47
2023/06/28 10:51:26;;;;;;;25.88;23.25;;;17.20;99.90;;;;;;4953216;28;19965;-50
2023/06/28 10:53:55;;;;;;;27.67;24.60;;;17.30;99.90;;;;;;4952855;28;20039;-49
2023/06/28 10:56:21;;;;;;;26.52;22.85;;;17.40;99.90;;;;;;4953159;28;20038;-50
2023/06/28 10:58:53;;;;;;;32.20;24.25;;;17.40;99.90;;;;;;4953074;28;20031;-48
2023/06/28 11:01:48;;;;;;;29.27;23.67;;;17.40;99.90;;;;;;4935495;28;20046;-51
2023/06/28 11:04:25;;;;;;;33.78;24.05;;;17.50;99.90;;;;;;4944118;28;20058;-51
2023/06/28 11:07:16;;;;;;;30.35;23.30;;;17.60;99.90;;;;;;4966887;28;20042;-50
2023/06/28 11:10:16;;;;;;;30.85;22.90;;;17.60;99.90;;;;;;4931242;28;20060;-52
2023/06/28 11:12:50;;;;;;;27.00;22.70;;;17.70;99.90;;;;;;4952683;28;20078;-48
2023/06/28 11:15:27;;;;;;;26.10;20.80;;;17.80;99.90;;;;;;4952856;28;20074;-46
2023/06/28 11:17:53;;;;;;;27.75;22.20;;;17.80;99.90;;;;;;4952448;28;20039;-51
2023/06/28 11:20:19;;;;;;;26.85;22.08;;;17.90;99.90;;;;;;4954544;28;20553;-46
2023/06/28 11:22:52;;;;;;;29.83;22.48;;;17.90;99.90;;;;;;4971970;28;20050;-49
2023/06/28 11:25:21;;;;;;;27.88;21.38;;;17.90;99.90;;;;;;4955999;28;20479;-50
2023/06/28 11:27:47;;;;;;;27.05;21.38;;;18.00;99.90;;;;;;4971521;28;20050;-49
2023/06/28 11:30:14;;;;;;;28.90;21.00;;;18.00;99.90;;;;;;4972085;28;20058;-50
2023/06/28 11:32:40;;;;;;;29.55;21.20;;;18.10;99.90;;;;;;4971723;28;20114;-50
2023/06/28 11:35:06;;;;;;;29.33;21.80;;;18.00;99.90;;;;;;4971249;28;20462;-48
2023/06/28 11:37:32;;;;;;;27.95;21.60;;;18.10;99.90;;;;;;4966210;28;20074;-49
2023/06/28 11:40:03;;;;;;;29.58;21.40;;;18.10;99.90;;;;;;4952695;28;20074;-51
2023/06/28 11:42:28;;;;;;;30.70;22.08;;;18.00;99.90;;;;;;4952118;28;20070;-49
2023/06/28 11:44:54;;;;;;;30.20;22.30;;;18.10;99.90;;;;;;4952144;28;20494;-50
2023/06/28 11:47:22;;;;;;;25.38;22.00;;;18.10;99.90;;;;;;4963835;28;20382;-48
2023/06/28 11:49:48;;;;;;;25.52;20.35;;;18.00;99.90;;;;;;4973177;28;20085;-48
2023/06/28 11:52:20;;;;;;;28.60;20.33;;;18.10;99.90;;;;;;4975336;28;20042;-48
2023/06/28 11:54:46;;;;;;;31.60;21.38;;;18.20;99.90;;;;;;4975433;28;20514;-46
2023/06/28 11:57:12;;;;;;;28.10;20.63;;;18.00;99.90;;;;;;4966859;28;20039;-47
2023/06/28 11:59:44;;;;;;;26.88;20.42;;;18.10;99.90;;;;;;4956125;28;20039;-46
2023/06/28 12:02:10;;;;;;;34.40;21.58;;;18.20;99.90;;;;;;4938678;28;20043;-46
2023/06/28 12:04:37;;;;;;;26.58;19.92;;;18.20;99.90;;;;;;4959793;28;20039;-50
2023/06/28 12:07:06;;;;;;;30.48;20.52;;;18.20;99.90;;;;;;4958240;28;20043;-49
2023/06/28 12:09:34;;;;;;;28.85;20.35;;;18.10;99.90;;;;;;4971774;28;20042;-48
2023/06/28 12:12:02;;;;;;;29.10;21.13;;;18.10;99.90;;;;;;4955767;28;20514;-49
2023/06/28 12:14:36;;;;;;;28.15;20.88;;;18.30;99.90;;;;;;4960833;28;20041;-48
2023/06/28 12:17:03;;;;;;;26.85;18.65;;;18.20;99.90;;;;;;4955687;28;20058;-52
2023/06/28 12:19:35;;;;;;;26.23;20.15;;;18.20;99.90;;;;;;4954483;28;20364;-51
2023/06/28 12:22:05;;;;;;;25.80;19.77;;;18.30;99.90;;;;;;4953978;28;20118;-50
2023/06/28 12:24:36;;;;;;;30.02;20.02;;;18.40;99.90;;;;;;4957783;28;20046;-49
2023/06/28 12:27:04;;;;;;;31.13;20.52;;;18.40;99.90;;;;;;4974942;28;20412;-49
2023/06/28 12:29:32;;;;;;;27.45;19.90;;;18.50;99.90;;;;;;4959906;28;20030;-50
2023/06/28 12:32:05;;;;;;;27.52;20.98;;;18.50;99.90;;;;;;4974661;28;20043;-49
2023/06/28 12:34:34;;;;;;;27.63;19.88;;;18.50;99.90;;;;;;4955322;28;20493;-53
2023/06/28 12:37:06;;;;;;;25.52;20.52;;;18.40;99.90;;;;;;4954970;28;20098;-49